« Back
NWS Peachtree City, Ga » Text Product » CSG Terminal Aerodrome Forecast


Printer-friendly Version
Current Version              Previous Versions:   1  2  3  4  5  6  7  8  9  

Terminal Aerodrome Forecast

067
FTUS42 KFFC 260500
TAFCSG
TAF
KCSG 260526Z 2606/2706 33004KT P6SM SKC
     FM261400 34006KT P6SM FEW250
     FM270000 00000KT P6SM SKC=



USA.gov is the U.S. government's official web portal to all federal, state and local government web resources and services.